createdAt,value
2019-03-18T00:00:34.556Z,47.30
2019-03-18T00:03:27.312Z,47.20
2019-03-18T00:06:20.234Z,47.30
2019-03-18T00:09:16.035Z,47.30
2019-03-18T00:12:09.109Z,47.30
2019-03-18T00:15:02.317Z,47.40
2019-03-18T00:17:55.357Z,47.40
2019-03-18T00:20:49.505Z,47.40
2019-03-18T00:23:43.096Z,47.40
2019-03-18T00:26:35.798Z,47.40
2019-03-18T00:29:28.356Z,47.40
2019-03-18T00:32:21.474Z,47.40
2019-03-18T00:35:14.453Z,47.50
2019-03-18T00:38:07.465Z,47.40
2019-03-18T00:41:08.859Z,47.50
2019-03-18T00:44:15.035Z,47.60
2019-03-18T00:47:07.889Z,47.50
2019-03-18T00:50:00.722Z,47.30
2019-03-18T00:52:56.607Z,47.40
2019-03-18T00:55:51.812Z,47.60
2019-03-18T00:58:44.719Z,47.40
2019-03-18T01:01:39.685Z,47.40
2019-03-18T01:04:33.619Z,47.40
2019-03-18T01:07:26.814Z,47.40
2019-03-18T01:10:23.255Z,47.50
2019-03-18T01:13:16.305Z,47.50
2019-03-18T01:16:09.807Z,47.40
2019-03-18T01:19:02.919Z,47.40
2019-03-18T01:21:56.078Z,47.50
2019-03-18T01:24:49.411Z,47.40
2019-03-18T01:27:47.100Z,47.40
2019-03-18T01:30:40.554Z,47.30
2019-03-18T01:33:33.045Z,47.30
2019-03-18T01:36:30.451Z,47.30
2019-03-18T01:39:26.897Z,47.20
2019-03-18T01:42:22.512Z,47.30
2019-03-18T01:45:15.923Z,47.40
2019-03-18T01:48:08.928Z,47.40
2019-03-18T01:51:02.133Z,47.30
2019-03-18T01:53:56.803Z,47.20
2019-03-18T01:56:50.258Z,47.30
2019-03-18T01:59:43.945Z,47.40
2019-03-18T02:02:39.428Z,47.20
2019-03-18T02:05:32.780Z,47.20
2019-03-18T02:08:27.366Z,47.30
2019-03-18T02:11:22.634Z,47.30
2019-03-18T02:14:16.185Z,47.00
2019-03-18T02:17:09.455Z,47.10
2019-03-18T02:20:03.735Z,47.20
2019-03-18T02:22:57.523Z,47.30
2019-03-18T02:25:52.028Z,47.30
2019-03-18T02:28:48.938Z,47.50
2019-03-18T02:31:42.741Z,47.30
2019-03-18T02:34:36.125Z,47.30
2019-03-18T02:37:31.061Z,47.20
2019-03-18T02:40:25.154Z,47.20
2019-03-18T02:43:18.637Z,47.10
2019-03-18T02:46:11.904Z,47.10
2019-03-18T02:49:05.242Z,47.10
2019-03-18T02:51:59.347Z,46.90
2019-03-18T02:54:52.504Z,46.70
2019-03-18T02:57:49.785Z,46.80
2019-03-18T03:00:42.673Z,46.70
2019-03-18T03:03:37.112Z,46.90
2019-03-18T03:06:31.481Z,46.90
2019-03-18T03:09:24.908Z,46.80
2019-03-18T03:12:17.873Z,46.80
2019-03-18T03:15:11.403Z,46.80
2019-03-18T03:18:04.820Z,46.90
2019-03-18T03:21:01.438Z,46.90
2019-03-18T03:23:55.633Z,46.80
2019-03-18T03:26:49.299Z,46.80
2019-03-18T03:29:43.204Z,46.70
2019-03-18T03:32:39.089Z,46.70
2019-03-18T03:35:33.885Z,46.70
2019-03-18T03:38:27.606Z,46.60
2019-03-18T03:41:21.896Z,46.70
2019-03-18T03:44:14.759Z,46.70
2019-03-18T03:50:31.442Z,46.50
2019-03-18T03:53:24.459Z,46.50
2019-03-18T03:56:20.584Z,46.50
2019-03-18T03:59:27.358Z,46.50
2019-03-18T04:02:22.162Z,46.50
2019-03-18T04:05:32.123Z,46.60
2019-03-18T06:02:31.506Z,48.80
2019-03-18T06:05:30.587Z,49.20
2019-03-18T06:08:29.711Z,49.20
2019-03-18T06:11:35.427Z,59.50
2019-03-18T06:22:49.064Z,49.60
2019-03-18T06:33:13.100Z,49.70
2019-03-18T06:36:36.529Z,49.80
2019-03-18T06:43:44.296Z,50.00
2019-03-18T06:46:51.788Z,50.00
2019-03-18T06:50:03.614Z,49.90
2019-03-18T06:53:17.730Z,49.20
2019-03-18T06:56:42.158Z,49.80
2019-03-18T07:03:53.513Z,49.80
2019-03-18T07:17:32.105Z,49.70
2019-03-18T07:32:21.271Z,49.70
2019-03-18T07:35:31.959Z,49.70
2019-03-18T07:39:17.216Z,49.70
2019-03-18T08:07:16.390Z,49.80
2019-03-18T08:10:29.501Z,49.80
2019-03-18T08:14:27.694Z,49.80
2019-03-18T08:24:01.618Z,49.70
2019-03-18T08:27:20.796Z,49.50
2019-03-18T08:30:15.300Z,49.80
2019-03-18T08:44:14.398Z,50.10
2019-03-18T08:47:39.554Z,50.10
2019-03-18T08:57:42.415Z,50.30
2019-03-18T09:00:38.532Z,50.70
2019-03-18T09:03:34.811Z,50.10
2019-03-18T09:06:32.720Z,50.10
2019-03-18T09:14:32.693Z,50.10
2019-03-18T09:18:24.428Z,50.10
2019-03-18T09:45:51.049Z,50.00
2019-03-18T10:07:31.281Z,49.90
